This is the latest recevied weather packets stored in our database for station/object SQ9PDE-13. If no packets are shown the sender has not sent any weather packets the latest 10 day(s).
| Time | Temp. | Humidity | Pressure | Rain* | Wind** | Luminosity | Snow |
|---|---|---|---|---|---|---|---|
| 1788109735 | 23.89° C | 50% | 1015 hPa | - | - | - | - |
| 1788109435 | 23.33° C | 54% | 1015.1 hPa | - | - | - | - |
| 1788109134 | 23.89° C | 50% | 1015 hPa | - | - | - | - |
| 1788108834 | 23.89° C | 50% | 1015 hPa | - | - | - | - |
| 1788108533 | 23.89° C | 49% | 1015 hPa | - | - | - | - |
| 1788108233 | 24.44° C | 49% | 1015 hPa | - | - | - | - |
| 1788108022 | 24.44° C | 49% | 1015 hPa | - | - | - | - |
| 1788107721 | 24.44° C | 49% | 1015 hPa | - | - | - | - |
| 1788107421 | 24.44° C | 48% | 1014.8 hPa | - | - | - | - |
| 1788107120 | 24.44° C | 48% | 1015 hPa | - | - | - | - |
| 1788097203 | 27.22° C | 41% | 1015 hPa | - | - | - | - |
| 1788096902 | 26.67° C | 41% | 1015.1 hPa | - | - | - | - |
| 1788096602 | 26.11° C | 41% | 1015.2 hPa | - | - | - | - |
| 1788096349 | 26.67° C | 41% | 1015.2 hPa | - | - | - | - |
| 1788096301 | 26.67° C | 41% | 1015.2 hPa | - | - | - | - |
| 1788096001 | 26.11° C | 43% | 1015.3 hPa | - | - | - | - |
| 1788095700 | 26.67° C | 40% | 1015.4 hPa | - | - | - | - |
| 1788095400 | 26.67° C | 40% | 1015.4 hPa | - | - | - | - |
| 1788095099 | 26.67° C | 41% | 1015.4 hPa | - | - | - | - |
| 1788094799 | 26.11° C | 42% | 1015.4 hPa | - | - | - | - |
| 1788094650 | 26.11° C | 42% | 1015.5 hPa | - | - | - | - |
| 1788094498 | 26.11° C | 42% | 1015.5 hPa | - | - | - | - |
| 1788094198 | 26.11° C | 42% | 1015.5 hPa | - | - | - | - |
| 1788093897 | 26.67° C | 42% | 1015.5 hPa | - | - | - | - |
| 1788093597 | 26.11° C | 43% | 1015.6 hPa | - | - | - | - |
* Rain since midnight (hover to see other rain measurements)
** Current wind speed in m/s (hover to see current wind gust speed)